Time;durP1;ratioP1;P1;durP2;ratioP2;P2;SDS_P1;SDS_P2;PMS_P1;PMS_P2;Temp;Humidity;BMP_temperature;BMP_pressure;BME280_temperature;BME280_humidity;BME280_pressure;Samples;Min_cycle;Max_cycle;Signal;HPM_P1;HPM_P2
2022/12/19 00:01:28;;;;;;;9.77;2.83;;;;;;;;;;4982426;28;20475;-43
2022/12/19 00:03:56;;;;;;;8.35;2.90;;;;;;;;;;4984778;28;20066;-41
2022/12/19 00:06:22;;;;;;;8.60;3.25;;;;;;;;;;4987008;28;20029;-44
2022/12/19 00:08:50;;;;;;;5.65;2.95;;;;;;;;;;4987243;28;20538;-43
2022/12/19 00:11:17;;;;;;;6.05;3.22;;;;;;;;;;4989682;28;20038;-42
2022/12/19 00:13:43;;;;;;;10.90;3.30;;;;;;;;;;4986762;28;20376;-42
2022/12/19 00:16:24;;;;;;;8.68;3.10;;;;;;;;;;4987123;28;20031;-43
2022/12/19 00:18:51;;;;;;;7.07;3.25;;;;;;;;;;4983516;28;20138;-44
2022/12/19 00:21:19;;;;;;;6.47;2.88;;;;;;;;;;4985733;28;20065;-41
2022/12/19 00:23:45;;;;;;;12.45;4.03;;;;;;;;;;4987291;28;20042;-43
2022/12/19 00:26:19;;;;;;;4.97;3.40;;;;;;;;;;4990337;28;20027;-41
2022/12/19 00:28:46;;;;;;;6.50;3.92;;;;;;;;;;4987598;28;20049;-41
2022/12/19 00:31:14;;;;;;;9.32;3.20;;;;;;;;;;4984884;28;20514;-42
2022/12/19 00:33:40;;;;;;;8.70;3.25;;;;;;;;;;4985167;28;20483;-41
2022/12/19 00:36:09;;;;;;;7.40;3.50;;;;;;;;;;4987430;28;20062;-45
2022/12/19 00:38:34;;;;;;;13.38;3.67;;;;;;;;;;4986963;28;20069;-41
2022/12/19 00:41:07;;;;;;;5.88;3.50;;;;;;;;;;4987801;28;20057;-44
2022/12/19 00:43:33;;;;;;;7.05;3.28;;;;;;;;;;4982688;28;20039;-42
2022/12/19 00:46:04;;;;;;;8.50;4.20;;;;;;;;;;4987706;28;20106;-42
2022/12/19 00:48:30;;;;;;;7.70;3.60;;;;;;;;;;4986150;28;20154;-41
2022/12/19 00:51:01;;;;;;;9.02;3.00;;;;;;;;;;4984322;28;20034;-41
2022/12/19 00:53:27;;;;;;;6.53;3.40;;;;;;;;;;4985253;28;20130;-42
2022/12/19 00:55:52;;;;;;;10.50;3.83;;;;;;;;;;4986288;28;20483;-41
2022/12/19 00:58:18;;;;;;;7.80;3.13;;;;;;;;;;4986388;28;20066;-41
2022/12/19 01:00:43;;;;;;;7.85;2.90;;;;;;;;;;4986987;28;20470;-42
2022/12/19 01:03:08;;;;;;;6.00;3.03;;;;;;;;;;4988317;28;20501;-43
2022/12/19 01:05:34;;;;;;;5.13;2.97;;;;;;;;;;4987090;28;20041;-43
2022/12/19 01:07:59;;;;;;;7.18;2.85;;;;;;;;;;4989293;28;20503;-42
2022/12/19 01:10:25;;;;;;;11.30;2.70;;;;;;;;;;4986857;28;20030;-42
2022/12/19 01:12:50;;;;;;;3.30;2.78;;;;;;;;;;4988153;28;20137;-40
2022/12/19 01:15:19;;;;;;;9.05;3.05;;;;;;;;;;4986674;28;20374;-41
2022/12/19 01:17:46;;;;;;;9.77;2.85;;;;;;;;;;4989627;28;20114;-43
2022/12/19 01:20:17;;;;;;;4.53;2.97;;;;;;;;;;4987636;28;20058;-44
2022/12/19 01:22:43;;;;;;;8.23;2.83;;;;;;;;;;4985330;28;20116;-42
2022/12/19 01:25:09;;;;;;;5.72;2.90;;;;;;;;;;4985590;28;20037;-41
2022/12/19 01:27:35;;;;;;;6.07;2.58;;;;;;;;;;4986731;28;20068;-43
2022/12/19 01:30:01;;;;;;;8.10;2.70;;;;;;;;;;4986304;28;20026;-44
2022/12/19 01:32:26;;;;;;;6.05;2.80;;;;;;;;;;4986430;28;20039;-42
2022/12/19 01:34:51;;;;;;;6.50;2.75;;;;;;;;;;4987627;28;20031;-43
2022/12/19 01:37:18;;;;;;;5.63;2.70;;;;;;;;;;4987162;28;20129;-44
2022/12/19 01:39:44;;;;;;;5.18;2.70;;;;;;;;;;4991027;28;20068;-41
2022/12/19 01:42:17;;;;;;;7.15;2.60;;;;;;;;;;4989803;28;20092;-45
2022/12/19 01:45:06;;;;;;;4.38;2.40;;;;;;;;;;4990313;28;20080;-42
2022/12/19 01:47:52;;;;;;;6.20;2.60;;;;;;;;;;4989998;28;20522;-42
2022/12/19 01:50:23;;;;;;;11.30;2.65;;;;;;;;;;4988874;28;20033;-44
2022/12/19 01:52:49;;;;;;;7.63;2.25;;;;;;;;;;4987998;28;20518;-45
2022/12/19 01:55:15;;;;;;;4.72;2.40;;;;;;;;;;4991055;28;20134;-42
2022/12/19 01:57:40;;;;;;;3.72;2.13;;;;;;;;;;4990440;28;20129;-42
2022/12/19 02:00:11;;;;;;;8.07;2.58;;;;;;;;;;4988740;28;20034;-42
2022/12/19 02:02:45;;;;;;;6.10;2.60;;;;;;;;;;4989921;28;20038;-41
2022/12/19 02:05:11;;;;;;;4.30;2.75;;;;;;;;;;4989399;28;20033;-42
2022/12/19 02:07:37;;;;;;;6.18;2.53;;;;;;;;;;4994035;28;20038;-43
2022/12/19 02:10:03;;;;;;;4.53;2.53;;;;;;;;;;4986867;28;20034;-44
2022/12/19 02:12:33;;;;;;;3.55;2.83;;;;;;;;;;4988656;28;20101;-43
2022/12/19 02:15:00;;;;;;;4.85;2.47;;;;;;;;;;4989058;28;20054;-42
2022/12/19 02:17:37;;;;;;;4.90;2.58;;;;;;;;;;4988711;28;20045;-42
2022/12/19 02:20:19;;;;;;;5.43;2.40;;;;;;;;;;4990442;28;20022;-41
2022/12/19 02:22:50;;;;;;;6.57;3.00;;;;;;;;;;4986812;28;20508;-42
2022/12/19 02:25:27;;;;;;;5.03;2.78;;;;;;;;;;4990175;28;20038;-42
2022/12/19 02:28:17;;;;;;;4.28;2.42;;;;;;;;;;4991219;28;20196;-46
2022/12/19 02:30:53;;;;;;;4.75;2.50;;;;;;;;;;4984908;28;20084;-43
2022/12/19 02:33:30;;;;;;;3.88;2.35;;;;;;;;;;4989128;28;20042;-43
2022/12/19 02:36:05;;;;;;;3.80;2.33;;;;;;;;;;4982432;28;20041;-41
2022/12/19 02:38:52;;;;;;;3.90;2.45;;;;;;;;;;4989894;28;20122;-44
2022/12/19 02:41:27;;;;;;;3.67;2.50;;;;;;;;;;4991341;28;20149;-42
2022/12/19 02:43:55;;;;;;;3.28;2.05;;;;;;;;;;4986952;28;20069;-42
2022/12/19 02:46:21;;;;;;;4.13;3.28;;;;;;;;;;4990693;28;20037;-42
2022/12/19 02:48:47;;;;;;;5.18;2.30;;;;;;;;;;4984276;28;20117;-42
2022/12/19 02:51:13;;;;;;;7.18;2.78;;;;;;;;;;4986514;28;20018;-44
2022/12/19 02:53:39;;;;;;;4.43;2.67;;;;;;;;;;4989051;28;20406;-41
2022/12/19 02:56:19;;;;;;;4.65;2.20;;;;;;;;;;4991019;28;20046;-45
2022/12/19 02:59:04;;;;;;;5.15;2.50;;;;;;;;;;4988651;28;20057;-43
2022/12/19 03:01:46;;;;;;;8.32;3.17;;;;;;;;;;4984699;28;20051;-41
2022/12/19 03:04:47;;;;;;;9.30;2.33;;;;;;;;;;4988070;28;20557;-41
2022/12/19 03:07:28;;;;;;;5.20;2.58;;;;;;;;;;4990295;28;20169;-41
2022/12/19 03:10:02;;;;;;;5.47;2.40;;;;;;;;;;4986603;28;20026;-43
2022/12/19 03:12:33;;;;;;;13.18;2.80;;;;;;;;;;4985264;28;20037;-41
2022/12/19 03:15:00;;;;;;;5.78;2.40;;;;;;;;;;4990569;28;20042;-42
2022/12/19 03:17:26;;;;;;;4.75;2.53;;;;;;;;;;4988598;28;20043;-42
2022/12/19 03:19:51;;;;;;;4.45;2.20;;;;;;;;;;4990282;28;20156;-42
2022/12/19 03:22:17;;;;;;;4.47;2.30;;;;;;;;;;4987276;28;20125;-41
2022/12/19 03:24:42;;;;;;;5.78;2.60;;;;;;;;;;4989046;28;20030;-42
2022/12/19 03:27:13;;;;;;;6.70;2.30;;;;;;;;;;4989365;28;20519;-41
2022/12/19 03:29:48;;;;;;;7.03;2.15;;;;;;;;;;4987659;28;20034;-42
2022/12/19 03:32:15;;;;;;;3.70;2.20;;;;;;;;;;4987349;28;20434;-42
2022/12/19 03:34:49;;;;;;;6.78;2.58;;;;;;;;;;4988744;28;20046;-44
2022/12/19 03:37:19;;;;;;;6.10;2.33;;;;;;;;;;4988582;28;20043;-42
2022/12/19 03:39:49;;;;;;;4.72;2.10;;;;;;;;;;4990881;28;20030;-43
2022/12/19 03:45:03;;;;;;;5.10;2.53;;;;;;;;;;4990295;28;20156;-45
2022/12/19 03:47:43;;;;;;;4.82;2.40;;;;;;;;;;4986246;28;20467;-41
2022/12/19 03:50:09;;;;;;;8.02;2.10;;;;;;;;;;4987009;28;20030;-41
2022/12/19 03:52:56;;;;;;;5.53;2.35;;;;;;;;;;4987054;28;20042;-42
2022/12/19 03:55:56;;;;;;;3.95;2.20;;;;;;;;;;4988158;28;20048;-42
2022/12/19 03:58:33;;;;;;;5.75;3.28;;;;;;;;;;4979194;28;20042;-42
2022/12/19 04:00:59;;;;;;;8.32;2.58;;;;;;;;;;4987206;28;20109;-44
2022/12/19 04:03:27;;;;;;;15.80;2.47;;;;;;;;;;4985110;28;20038;-43
2022/12/19 04:05:54;;;;;;;6.10;2.13;;;;;;;;;;4989020;28;20105;-41
2022/12/19 04:08:20;;;;;;;3.92;2.30;;;;;;;;;;4989700;28;20090;-42
2022/12/19 04:11:01;;;;;;;5.72;2.45;;;;;;;;;;4986751;28;20030;-41
2022/12/19 04:13:40;;;;;;;5.10;2.88;;;;;;;;;;4987139;28;20030;-41
2022/12/19 04:16:22;;;;;;;3.55;2.50;;;;;;;;;;4986347;28;20034;-43
2022/12/19 04:18:54;;;;;;;7.18;2.90;;;;;;;;;;4986538;28;20086;-43
2022/12/19 04:21:40;;;;;;;3.13;2.40;;;;;;;;;;4988455;28;20026;-42
2022/12/19 04:24:12;;;;;;;5.28;2.40;;;;;;;;;;4985211;28;20117;-41
2022/12/19 04:26:43;;;;;;;5.28;2.00;;;;;;;;;;4986913;28;20030;-41
2022/12/19 04:29:11;;;;;;;4.65;2.17;;;;;;;;;;4990181;28;20026;-45
2022/12/19 04:31:37;;;;;;;8.13;2.60;;;;;;;;;;4982780;28;20031;-40
2022/12/19 04:34:02;;;;;;;9.40;2.58;;;;;;;;;;4985785;28;20145;-41
2022/12/19 04:36:28;;;;;;;6.65;2.60;;;;;;;;;;4983027;28;20505;-45
2022/12/19 04:38:53;;;;;;;5.53;2.42;;;;;;;;;;4986526;28;20038;-43
2022/12/19 04:41:19;;;;;;;5.88;2.63;;;;;;;;;;4988036;28;20077;-42
2022/12/19 04:43:44;;;;;;;5.95;2.63;;;;;;;;;;4984521;28;20454;-43
2022/12/19 04:46:10;;;;;;;4.53;2.53;;;;;;;;;;4985641;28;20102;-41
2022/12/19 04:48:35;;;;;;;5.93;2.83;;;;;;;;;;4987618;28;20049;-41
2022/12/19 04:51:01;;;;;;;4.18;2.28;;;;;;;;;;4988838;28;20483;-43
2022/12/19 04:53:26;;;;;;;7.40;2.28;;;;;;;;;;4985644;28;20122;-43
2022/12/19 04:56:00;;;;;;;5.00;2.45;;;;;;;;;;4985535;28;20406;-41
2022/12/19 04:58:26;;;;;;;3.60;2.13;;;;;;;;;;4987297;28;20125;-44
2022/12/19 05:00:51;;;;;;;5.93;2.60;;;;;;;;;;4986145;28;20138;-42
2022/12/19 05:03:16;;;;;;;7.70;2.50;;;;;;;;;;4985064;28;20046;-42
2022/12/19 05:05:42;;;;;;;5.53;2.72;;;;;;;;;;4986505;28;20535;-42
2022/12/19 05:08:07;;;;;;;6.70;2.70;;;;;;;;;;4985208;28;20042;-41
2022/12/19 05:10:33;;;;;;;6.00;2.47;;;;;;;;;;4984946;28;20030;-42
2022/12/19 05:12:58;;;;;;;5.55;2.20;;;;;;;;;;4989197;28;20038;-41
2022/12/19 05:15:23;;;;;;;2.38;2.15;;;;;;;;;;4992603;28;20035;-42
2022/12/19 05:17:49;;;;;;;2.95;2.22;;;;;;;;;;4993229;28;20046;-46
2022/12/19 05:20:14;;;;;;;9.90;2.90;;;;;;;;;;4991263;28;20093;-41
2022/12/19 05:22:39;;;;;;;2.53;2.10;;;;;;;;;;4988774;28;20046;-42
2022/12/19 05:25:05;;;;;;;5.47;2.10;;;;;;;;;;4991579;28;20022;-41
2022/12/19 05:27:31;;;;;;;6.80;2.53;;;;;;;;;;4990913;28;20090;-42
2022/12/19 05:29:56;;;;;;;2.00;1.80;;;;;;;;;;4990675;28;20379;-42
2022/12/19 05:32:21;;;;;;;5.05;2.13;;;;;;;;;;4989234;28;20050;-42
2022/12/19 05:34:47;;;;;;;5.47;2.33;;;;;;;;;;4987648;28;20101;-42
2022/12/19 05:37:12;;;;;;;5.75;2.60;;;;;;;;;;4988486;28;20042;-42
2022/12/19 05:39:37;;;;;;;6.22;2.20;;;;;;;;;;4990803;28;21499;-42
2022/12/19 05:42:03;;;;;;;4.18;2.03;;;;;;;;;;4988169;28;20124;-41
2022/12/19 05:44:28;;;;;;;5.15;2.25;;;;;;;;;;4986436;28;20046;-41
2022/12/19 05:46:54;;;;;;;3.40;2.30;;;;;;;;;;4990797;28;20049;-42
2022/12/19 05:49:19;;;;;;;5.85;2.55;;;;;;;;;;4992221;28;20022;-42
2022/12/19 05:51:44;;;;;;;3.42;2.03;;;;;;;;;;4989399;28;22157;-41
2022/12/19 05:54:10;;;;;;;3.35;2.30;;;;;;;;;;4986421;28;20039;-46
2022/12/19 05:56:35;;;;;;;2.60;2.40;;;;;;;;;;4989440;28;20061;-41
2022/12/19 05:59:00;;;;;;;3.45;2.30;;;;;;;;;;4986797;28;20022;-44
2022/12/19 06:01:27;;;;;;;4.18;2.47;;;;;;;;;;4989980;28;20049;-40
2022/12/19 06:03:53;;;;;;;3.95;2.28;;;;;;;;;;4987769;28;20467;-41
2022/12/19 06:06:24;;;;;;;2.45;2.25;;;;;;;;;;4986183;28;20069;-46
2022/12/19 06:08:54;;;;;;;5.15;2.63;;;;;;;;;;4986355;28;20042;-41
2022/12/19 06:11:20;;;;;;;3.97;2.30;;;;;;;;;;4986671;28;20030;-41
2022/12/19 06:13:46;;;;;;;7.70;2.40;;;;;;;;;;4988767;28;20782;-41
2022/12/19 06:16:14;;;;;;;4.20;2.40;;;;;;;;;;4988120;28;20030;-41
2022/12/19 06:18:41;;;;;;;5.65;2.70;;;;;;;;;;4987417;28;20064;-42
2022/12/19 06:21:11;;;;;;;7.20;2.80;;;;;;;;;;4989770;28;20415;-45
2022/12/19 06:23:37;;;;;;;5.50;2.60;;;;;;;;;;4989682;28;20402;-43
2022/12/19 06:26:05;;;;;;;3.83;2.30;;;;;;;;;;4990285;28;20034;-42
2022/12/19 06:28:31;;;;;;;5.15;2.40;;;;;;;;;;4990507;28;20053;-47
2022/12/19 06:31:01;;;;;;;5.35;2.50;;;;;;;;;;4991199;28;20018;-41
2022/12/19 06:33:28;;;;;;;6.22;2.80;;;;;;;;;;4989242;28;20078;-41
2022/12/19 06:36:02;;;;;;;5.50;2.42;;;;;;;;;;4987757;28;20129;-47
2022/12/19 06:38:29;;;;;;;2.35;2.15;;;;;;;;;;4990770;28;20531;-45
2022/12/19 06:43:39;;;;;;;6.30;2.70;;;;;;;;;;4988927;28;20129;-41
2022/12/19 06:46:05;;;;;;;6.97;2.92;;;;;;;;;;4984651;28;20109;-45
2022/12/19 06:48:30;;;;;;;4.80;2.60;;;;;;;;;;4989019;28;20101;-41
2022/12/19 06:50:56;;;;;;;3.63;2.88;;;;;;;;;;4990335;28;20031;-44
2022/12/19 06:53:21;;;;;;;7.90;2.28;;;;;;;;;;4988993;28;20073;-41
2022/12/19 06:55:49;;;;;;;3.95;2.70;;;;;;;;;;4986819;28;20046;-44
2022/12/19 06:58:15;;;;;;;7.45;2.60;;;;;;;;;;4988228;28;20038;-43
2022/12/19 07:00:40;;;;;;;6.82;3.53;;;;;;;;;;4982805;28;20062;-42
2022/12/19 07:03:11;;;;;;;4.82;2.47;;;;;;;;;;4983520;28;20046;-44
2022/12/19 07:05:37;;;;;;;4.63;2.28;;;;;;;;;;4988637;28;20039;-46
2022/12/19 07:08:03;;;;;;;5.00;2.45;;;;;;;;;;4986450;28;20406;-43
2022/12/19 07:10:28;;;;;;;4.25;2.42;;;;;;;;;;4985435;28;20046;-41
2022/12/19 07:12:53;;;;;;;4.40;2.30;;;;;;;;;;4990579;28;20045;-43
2022/12/19 07:15:19;;;;;;;4.35;2.10;;;;;;;;;;4987856;28;20023;-44
2022/12/19 07:17:44;;;;;;;3.55;2.60;;;;;;;;;;4991294;28;20052;-41
2022/12/19 07:20:11;;;;;;;7.43;2.30;;;;;;;;;;4986300;28;20486;-44
2022/12/19 07:22:37;;;;;;;3.55;2.38;;;;;;;;;;4988850;28;20510;-41
2022/12/19 07:25:04;;;;;;;4.05;2.42;;;;;;;;;;4982905;28;20037;-42
2022/12/19 07:27:30;;;;;;;3.10;2.53;;;;;;;;;;4981284;28;20376;-46
2022/12/19 07:29:55;;;;;;;4.20;2.35;;;;;;;;;;4981122;28;20041;-45
2022/12/19 07:32:21;;;;;;;2.58;1.98;;;;;;;;;;4986325;28;20123;-44
2022/12/19 07:34:46;;;;;;;4.43;2.53;;;;;;;;;;4979317;28;20030;-42
2022/12/19 07:37:12;;;;;;;6.53;2.80;;;;;;;;;;4987108;28;20039;-44
2022/12/19 07:39:37;;;;;;;5.03;2.80;;;;;;;;;;4984605;28;20026;-43
2022/12/19 07:42:03;;;;;;;5.43;3.10;;;;;;;;;;4989863;28;20050;-42
2022/12/19 07:44:28;;;;;;;3.05;2.60;;;;;;;;;;4982204;28;20070;-42
2022/12/19 07:46:53;;;;;;;2.65;2.38;;;;;;;;;;4989509;28;20133;-42
2022/12/19 07:49:19;;;;;;;3.38;2.50;;;;;;;;;;4986827;28;20030;-43
2022/12/19 07:51:44;;;;;;;5.72;2.58;;;;;;;;;;4985257;28;20077;-43
2022/12/19 07:54:10;;;;;;;3.58;2.20;;;;;;;;;;4989654;28;20081;-45
2022/12/19 07:56:35;;;;;;;4.22;2.53;;;;;;;;;;4982604;28;20054;-42
2022/12/19 07:59:00;;;;;;;5.43;2.58;;;;;;;;;;4986633;28;20050;-42
2022/12/19 08:01:26;;;;;;;6.63;2.80;;;;;;;;;;4979807;28;20033;-39
2022/12/19 08:03:54;;;;;;;8.73;2.28;;;;;;;;;;4983165;28;20034;-45
2022/12/19 08:06:20;;;;;;;9.13;3.08;;;;;;;;;;4978948;28;21477;-44
2022/12/19 08:08:45;;;;;;;4.25;2.75;;;;;;;;;;4978625;28;20059;-43
2022/12/19 08:11:13;;;;;;;7.18;3.67;;;;;;;;;;4975689;28;20029;-42
2022/12/19 08:13:38;;;;;;;8.82;3.03;;;;;;;;;;4981389;28;20070;-41
2022/12/19 08:16:04;;;;;;;5.68;2.80;;;;;;;;;;4982279;28;20081;-40
2022/12/19 08:18:30;;;;;;;3.35;2.40;;;;;;;;;;4983982;28;20044;-40
2022/12/19 08:20:56;;;;;;;4.30;2.50;;;;;;;;;;4983554;28;20512;-44
2022/12/19 08:23:22;;;;;;;9.15;2.60;;;;;;;;;;4989422;28;20124;-42
2022/12/19 08:25:48;;;;;;;4.85;2.63;;;;;;;;;;4990032;28;20026;-45
2022/12/19 08:28:14;;;;;;;6.05;2.90;;;;;;;;;;4981960;28;20053;-47
2022/12/19 08:30:40;;;;;;;4.60;3.10;;;;;;;;;;4989395;28;20042;-41
2022/12/19 08:33:06;;;;;;;5.88;3.22;;;;;;;;;;4984464;28;20048;-41
2022/12/19 08:35:31;;;;;;;5.85;3.20;;;;;;;;;;4986358;28;20045;-42
2022/12/19 08:37:57;;;;;;;6.20;3.05;;;;;;;;;;4983465;28;20145;-43
2022/12/19 08:40:22;;;;;;;7.15;3.60;;;;;;;;;;4990214;28;20026;-43
2022/12/19 08:42:49;;;;;;;4.90;3.22;;;;;;;;;;4983936;28;20487;-41
2022/12/19 08:45:15;;;;;;;5.22;3.42;;;;;;;;;;4988088;28;20030;-41
2022/12/19 08:47:42;;;;;;;9.27;4.03;;;;;;;;;;4985950;28;20133;-42
2022/12/19 08:50:08;;;;;;;6.65;3.63;;;;;;;;;;4985069;28;20045;-44
2022/12/19 08:52:33;;;;;;;8.23;3.95;;;;;;;;;;4986816;28;20050;-42
2022/12/19 08:54:59;;;;;;;7.88;3.42;;;;;;;;;;4986920;28;20061;-41
2022/12/19 08:57:26;;;;;;;9.13;3.40;;;;;;;;;;4984307;28;20058;-46
2022/12/19 08:59:51;;;;;;;6.93;3.78;;;;;;;;;;4989164;28;20084;-43
2022/12/19 09:02:17;;;;;;;7.68;3.28;;;;;;;;;;4987092;28;20043;-42
2022/12/19 09:04:42;;;;;;;8.13;3.72;;;;;;;;;;4989610;28;20689;-42
2022/12/19 09:07:07;;;;;;;3.40;2.92;;;;;;;;;;4986190;28;20042;-44
2022/12/19 09:09:33;;;;;;;7.55;2.72;;;;;;;;;;4983798;28;20488;-42
2022/12/19 09:11:58;;;;;;;8.60;2.80;;;;;;;;;;4987369;28;20630;-42
2022/12/19 09:14:23;;;;;;;4.60;2.78;;;;;;;;;;4986532;28;20034;-43
2022/12/19 09:16:49;;;;;;;4.93;2.88;;;;;;;;;;4985103;28;20137;-43
2022/12/19 09:19:15;;;;;;;6.93;2.83;;;;;;;;;;4977966;28;20056;-45
2022/12/19 09:21:41;;;;;;;6.50;3.22;;;;;;;;;;4985120;28;20113;-43
2022/12/19 09:24:07;;;;;;;3.90;2.47;;;;;;;;;;4988194;28;20089;-43
2022/12/19 09:26:34;;;;;;;5.18;2.42;;;;;;;;;;4984755;28;20035;-44
2022/12/19 09:28:59;;;;;;;5.22;2.83;;;;;;;;;;4984213;28;20046;-43
2022/12/19 09:31:25;;;;;;;5.35;2.90;;;;;;;;;;4985927;28;20053;-42
2022/12/19 09:33:51;;;;;;;3.22;2.30;;;;;;;;;;4987555;28;20399;-43
2022/12/19 09:36:20;;;;;;;6.43;3.00;;;;;;;;;;4987960;28;20105;-43
2022/12/19 09:38:46;;;;;;;2.90;2.60;;;;;;;;;;4982729;28;20050;-43
2022/12/19 09:41:34;;;;;;;6.63;3.00;;;;;;;;;;4987252;28;20197;-42
2022/12/19 09:44:34;;;;;;;5.60;3.15;;;;;;;;;;4987641;28;20383;-43
2022/12/19 09:47:13;;;;;;;5.85;3.70;;;;;;;;;;5016111;28;20061;-43
2022/12/19 09:49:43;;;;;;;5.53;2.88;;;;;;;;;;4985367;28;20034;-45
2022/12/19 09:52:20;;;;;;;5.53;2.80;;;;;;;;;;4987330;28;20046;-43
2022/12/19 09:54:51;;;;;;;6.15;2.67;;;;;;;;;;4983547;28;20054;-47
2022/12/19 09:57:21;;;;;;;3.55;2.70;;;;;;;;;;4987470;28;20058;-43
2022/12/19 09:59:52;;;;;;;4.20;2.78;;;;;;;;;;4989775;28;20037;-42
2022/12/19 10:02:41;;;;;;;5.63;2.80;;;;;;;;;;4987290;28;20038;-41
2022/12/19 10:05:15;;;;;;;4.60;2.80;;;;;;;;;;4991635;28;20118;-42
2022/12/19 10:07:42;;;;;;;3.03;2.60;;;;;;;;;;4986699;28;20077;-42
2022/12/19 10:10:14;;;;;;;5.55;3.05;;;;;;;;;;4995267;28;20588;-43
2022/12/19 10:12:42;;;;;;;3.88;2.38;;;;;;;;;;4989095;28;20053;-42
2022/12/19 10:15:24;;;;;;;3.28;2.50;;;;;;;;;;4987622;28;20102;-43
2022/12/19 10:17:49;;;;;;;5.27;2.50;;;;;;;;;;4992915;28;20073;-44
2022/12/19 10:20:33;;;;;;;4.43;2.85;;;;;;;;;;4986329;28;20026;-44
2022/12/19 10:23:36;;;;;;;3.60;2.67;;;;;;;;;;4981996;28;20125;-44
2022/12/19 10:26:25;;;;;;;5.10;2.42;;;;;;;;;;4987980;28;20050;-43
2022/12/19 10:29:26;;;;;;;6.63;2.97;;;;;;;;;;4985357;28;20057;-44
2022/12/19 10:32:13;;;;;;;4.85;2.30;;;;;;;;;;4984175;28;20065;-45
2022/12/19 10:34:43;;;;;;;2.40;2.17;;;;;;;;;;4982954;28;20041;-42
2022/12/19 10:37:23;;;;;;;6.13;3.00;;;;;;;;;;4978904;28;20050;-44
2022/12/19 10:40:10;;;;;;;5.25;2.53;;;;;;;;;;4979442;28;20049;-43
2022/12/19 10:42:41;;;;;;;6.40;2.63;;;;;;;;;;4979770;28;20116;-44
2022/12/19 10:45:14;;;;;;;5.28;3.58;;;;;;;;;;4985014;28;20030;-43
2022/12/19 10:47:41;;;;;;;6.43;2.72;;;;;;;;;;4980165;28;20121;-42
2022/12/19 10:50:11;;;;;;;5.53;3.00;;;;;;;;;;4977903;28;20037;-46
2022/12/19 10:52:52;;;;;;;4.28;2.63;;;;;;;;;;4987451;28;20852;-43
2022/12/19 10:55:50;;;;;;;4.90;2.63;;;;;;;;;;4978399;28;20049;-43
2022/12/19 10:58:26;;;;;;;5.13;2.72;;;;;;;;;;4983274;28;20121;-43
2022/12/19 11:01:28;;;;;;;5.75;2.65;;;;;;;;;;4983325;28;20022;-42
2022/12/19 11:04:35;;;;;;;3.20;2.03;;;;;;;;;;4985950;28;20055;-43
2022/12/19 11:07:20;;;;;;;4.43;2.50;;;;;;;;;;4981297;28;20050;-43
2022/12/19 11:09:46;;;;;;;5.70;2.47;;;;;;;;;;4985949;28;20045;-43
2022/12/19 11:12:14;;;;;;;2.58;2.38;;;;;;;;;;4985493;28;20122;-45
2022/12/19 11:14:44;;;;;;;5.32;3.15;;;;;;;;;;4982659;28;20518;-42
2022/12/19 11:17:41;;;;;;;3.25;2.10;;;;;;;;;;4984712;28;20056;-43
2022/12/19 11:20:22;;;;;;;4.13;2.15;;;;;;;;;;4967945;28;20074;-43
2022/12/19 11:22:52;;;;;;;3.03;2.00;;;;;;;;;;4967153;28;20145;-45
2022/12/19 11:25:22;;;;;;;10.57;3.17;;;;;;;;;;4965685;28;20098;-43
2022/12/19 11:27:48;;;;;;;5.63;2.38;;;;;;;;;;4964313;28;20460;-43
2022/12/19 11:30:13;;;;;;;5.82;2.67;;;;;;;;;;4968536;28;20049;-43
2022/12/19 11:32:41;;;;;;;3.85;2.75;;;;;;;;;;4967570;28;20069;-43
2022/12/19 11:35:24;;;;;;;7.63;2.30;;;;;;;;;;4964585;28;20031;-43
2022/12/19 11:37:58;;;;;;;7.47;2.40;;;;;;;;;;4966836;28;20102;-46
2022/12/19 11:40:29;;;;;;;7.95;2.58;;;;;;;;;;4963352;28;20038;-43
2022/12/19 11:43:02;;;;;;;4.88;2.70;;;;;;;;;;4966403;28;20042;-45
2022/12/19 11:45:55;;;;;;;5.22;2.25;;;;;;;;;;4962548;28;20026;-45
2022/12/19 11:49:07;;;;;;;6.80;2.38;;;;;;;;;;4961476;28;20089;-42
2022/12/19 11:51:48;;;;;;;7.82;2.88;;;;;;;;;;4920149;29;20115;-44
2022/12/19 11:54:40;;;;;;;7.72;3.28;;;;;;;;;;4924871;29;20042;-42
2022/12/19 11:57:14;;;;;;;3.75;2.85;;;;;;;;;;4950932;28;20055;-43
2022/12/19 11:59:41;;;;;;;5.10;2.95;;;;;;;;;;4962582;28;20542;-44
2022/12/19 12:02:26;;;;;;;5.05;2.60;;;;;;;;;;4942299;28;20542;-43
2022/12/19 12:05:22;;;;;;;5.10;3.50;;;;;;;;;;4962320;28;20023;-44
2022/12/19 12:08:11;;;;;;;7.13;2.67;;;;;;;;;;4964635;28;20042;-43
2022/12/19 12:10:46;;;;;;;5.85;2.90;;;;;;;;;;4963278;28;20039;-43
2022/12/19 12:13:33;;;;;;;3.42;2.60;;;;;;;;;;4962761;28;20062;-42
2022/12/19 12:16:12;;;;;;;7.28;2.42;;;;;;;;;;4964740;28;20144;-43
2022/12/19 12:18:52;;;;;;;6.57;2.13;;;;;;;;;;4965038;28;20458;-43
2022/12/19 12:21:25;;;;;;;6.45;3.17;;;;;;;;;;4965391;28;20471;-43
2022/12/19 12:24:05;;;;;;;5.30;4.03;;;;;;;;;;4962694;28;20503;-43
2022/12/19 12:26:48;;;;;;;7.75;4.10;;;;;;;;;;4958601;28;20089;-41
2022/12/19 12:29:16;;;;;;;13.20;3.50;;;;;;;;;;4981848;28;20080;-43
2022/12/19 12:31:59;;;;;;;6.38;3.30;;;;;;;;;;4989083;28;20057;-43
2022/12/19 12:34:46;;;;;;;5.70;2.83;;;;;;;;;;4981830;28;20042;-42
2022/12/19 12:37:46;;;;;;;6.25;3.17;;;;;;;;;;4985385;28;20466;-44
2022/12/19 12:40:24;;;;;;;4.60;2.70;;;;;;;;;;4988162;28;20034;-44
2022/12/19 12:42:58;;;;;;;11.93;2.70;;;;;;;;;;4986243;28;20627;-42
2022/12/19 12:45:40;;;;;;;5.43;2.90;;;;;;;;;;4989859;28;20061;-43
2022/12/19 12:48:24;;;;;;;5.43;2.95;;;;;;;;;;4986908;28;20042;-44
2022/12/19 12:50:51;;;;;;;6.03;2.90;;;;;;;;;;4986158;28;20050;-43
2022/12/19 12:53:20;;;;;;;10.00;2.70;;;;;;;;;;4979993;28;20583;-42
2022/12/19 12:55:47;;;;;;;6.07;3.20;;;;;;;;;;4986493;28;20073;-43
2022/12/19 12:58:47;;;;;;;9.77;3.25;;;;;;;;;;4986353;28;20134;-43
2022/12/19 13:01:17;;;;;;;5.38;3.17;;;;;;;;;;4988383;28;20022;-43
2022/12/19 13:03:53;;;;;;;7.00;2.88;;;;;;;;;;4985959;28;20077;-42
2022/12/19 13:06:25;;;;;;;7.22;2.80;;;;;;;;;;4986872;28;20085;-44
2022/12/19 13:09:00;;;;;;;7.20;2.65;;;;;;;;;;4983286;28;20057;-43
2022/12/19 13:14:34;;;;;;;3.92;2.85;;;;;;;;;;4988365;28;20116;-43
2022/12/19 13:17:00;;;;;;;8.65;2.88;;;;;;;;;;4986513;28;20200;-43
2022/12/19 13:19:34;;;;;;;9.30;2.92;;;;;;;;;;4984356;28;20097;-42
2022/12/19 13:22:03;;;;;;;6.10;2.95;;;;;;;;;;4984847;28;20419;-43
2022/12/19 13:24:51;;;;;;;5.20;2.78;;;;;;;;;;4980827;28;20022;-42
2022/12/19 13:27:39;;;;;;;4.72;2.83;;;;;;;;;;4984774;28;20395;-42
2022/12/19 13:30:13;;;;;;;7.40;3.20;;;;;;;;;;4987635;28;20031;-42
2022/12/19 13:32:39;;;;;;;7.32;2.67;;;;;;;;;;4988828;28;20050;-45
2022/12/19 13:35:24;;;;;;;4.65;2.30;;;;;;;;;;4991630;28;20101;-43
2022/12/19 13:38:08;;;;;;;4.45;2.70;;;;;;;;;;4989432;28;20035;-42
2022/12/19 13:40:55;;;;;;;5.10;3.05;;;;;;;;;;4984562;28;20118;-43
2022/12/19 13:43:45;;;;;;;7.13;3.55;;;;;;;;;;4994125;28;20652;-44
2022/12/19 13:46:47;;;;;;;6.00;2.90;;;;;;;;;;4991291;28;20031;-43
2022/12/19 13:49:20;;;;;;;5.43;3.13;;;;;;;;;;4984385;28;20049;-42
2022/12/19 13:51:51;;;;;;;6.75;2.90;;;;;;;;;;4986730;28;20030;-43
2022/12/19 13:54:22;;;;;;;5.15;2.80;;;;;;;;;;4986026;28;20030;-43
2022/12/19 13:56:51;;;;;;;5.53;3.00;;;;;;;;;;4987249;28;20042;-47
2022/12/19 13:59:18;;;;;;;4.22;2.92;;;;;;;;;;4990999;28;20490;-43
2022/12/19 14:01:43;;;;;;;10.65;3.10;;;;;;;;;;4986702;28;20038;-45
2022/12/19 14:04:12;;;;;;;5.57;2.67;;;;;;;;;;4989381;28;20533;-44
2022/12/19 14:06:43;;;;;;;7.85;3.55;;;;;;;;;;4987256;28;20029;-44
2022/12/19 14:09:21;;;;;;;8.27;2.70;;;;;;;;;;4989290;28;20583;-44
2022/12/19 14:11:48;;;;;;;4.53;2.80;;;;;;;;;;4986027;28;20046;-44
2022/12/19 14:17:13;;;;;;;8.70;2.92;;;;;;;;;;4979676;28;20068;-44
2022/12/19 14:19:45;;;;;;;5.30;2.80;;;;;;;;;;4988075;28;20038;-46
2022/12/19 14:22:10;;;;;;;9.48;3.72;;;;;;;;;;4981836;28;20039;-43
2022/12/19 14:24:36;;;;;;;6.25;3.70;;;;;;;;;;4988672;28;20038;-42
2022/12/19 14:27:05;;;;;;;6.20;2.95;;;;;;;;;;4986602;28;20494;-42
2022/12/19 14:29:38;;;;;;;8.57;3.85;;;;;;;;;;4989665;28;20449;-42
2022/12/19 14:32:06;;;;;;;5.72;3.35;;;;;;;;;;4989965;28;20046;-42
2022/12/19 14:34:33;;;;;;;6.00;3.20;;;;;;;;;;4989875;28;20486;-42
2022/12/19 14:36:58;;;;;;;6.47;3.15;;;;;;;;;;4991063;28;20110;-42
2022/12/19 14:39:30;;;;;;;10.23;3.72;;;;;;;;;;4984114;28;20520;-43
2022/12/19 14:44:56;;;;;;;5.53;2.90;;;;;;;;;;4979341;28;20097;-44
2022/12/19 14:47:24;;;;;;;5.55;2.78;;;;;;;;;;4984768;28;20439;-42
2022/12/19 14:49:51;;;;;;;7.03;2.70;;;;;;;;;;4973973;28;20170;-43
2022/12/19 14:52:40;;;;;;;5.25;2.92;;;;;;;;;;4979698;28;20521;-42
2022/12/19 14:55:18;;;;;;;9.32;4.35;;;;;;;;;;4979559;28;20054;-42
2022/12/19 14:57:43;;;;;;;7.38;3.80;;;;;;;;;;4978321;28;20045;-47
2022/12/19 15:00:26;;;;;;;12.35;2.97;;;;;;;;;;4979033;28;20035;-42
2022/12/19 15:02:52;;;;;;;6.68;3.70;;;;;;;;;;4986299;28;20039;-42
2022/12/19 15:05:18;;;;;;;11.77;3.10;;;;;;;;;;4987971;28;20097;-43
2022/12/19 15:07:47;;;;;;;7.00;3.30;;;;;;;;;;4984140;28;20522;-42
2022/12/19 15:10:17;;;;;;;8.10;3.80;;;;;;;;;;4986743;28;20027;-42
2022/12/19 15:15:49;;;;;;;5.88;3.28;;;;;;;;;;4987590;28;20047;-42
2022/12/19 15:18:22;;;;;;;6.70;3.63;;;;;;;;;;4975128;28;20053;-42
2022/12/19 15:20:51;;;;;;;8.52;4.40;;;;;;;;;;4985378;28;20038;-42
2022/12/19 15:23:18;;;;;;;14.85;4.55;;;;;;;;;;4982435;28;20594;-42
2022/12/19 15:25:43;;;;;;;7.55;4.10;;;;;;;;;;4985485;28;20049;-42